createdAt,value
2024-04-30T00:01:01.195Z,74.18
2024-04-30T00:03:41.386Z,74.19
2024-04-30T00:06:10.102Z,74.17
2024-04-30T00:08:38.414Z,74.12
2024-04-30T00:11:06.480Z,74.13
2024-04-30T00:13:34.410Z,74.18
2024-04-30T00:16:03.551Z,74.21
2024-04-30T00:18:31.127Z,74.19
2024-04-30T00:20:59.232Z,74.12
2024-04-30T00:23:26.751Z,74.23
2024-04-30T00:25:54.290Z,74.26
2024-04-30T00:28:21.844Z,74.16
2024-04-30T00:30:49.454Z,74.27
2024-04-30T00:33:17.092Z,74.19
2024-04-30T00:35:44.729Z,74.44
2024-04-30T00:38:12.302Z,74.52
2024-04-30T00:40:39.945Z,74.73
2024-04-30T00:43:07.574Z,74.90
2024-04-30T00:45:35.251Z,74.96
2024-04-30T00:48:05.546Z,75.08
2024-04-30T00:50:34.157Z,75.20
2024-04-30T00:53:02.944Z,75.21
2024-04-30T00:55:30.809Z,75.09
2024-04-30T00:57:58.740Z,75.09
2024-04-30T01:00:26.286Z,75.09
2024-04-30T01:02:53.861Z,75.25
2024-04-30T01:05:21.477Z,75.37
2024-04-30T01:07:49.107Z,75.43
2024-04-30T01:10:17.640Z,75.37
2024-04-30T01:12:45.359Z,75.64
2024-04-30T01:15:13.803Z,75.58
2024-04-30T01:17:41.370Z,75.63
2024-04-30T01:20:11.022Z,75.74
2024-04-30T01:22:42.987Z,75.67
2024-04-30T01:25:10.680Z,75.86
2024-04-30T01:27:38.317Z,76.08
2024-04-30T01:30:07.604Z,76.17
2024-04-30T01:32:35.393Z,76.08
2024-04-30T01:35:03.167Z,76.20
2024-04-30T01:37:30.942Z,76.09
2024-04-30T01:39:58.741Z,76.01
2024-04-30T01:42:26.293Z,76.10
2024-04-30T01:44:53.833Z,76.20
2024-04-30T01:47:21.681Z,76.24
2024-04-30T01:49:49.258Z,76.46
2024-04-30T01:52:16.825Z,76.55
2024-04-30T01:54:44.598Z,76.61
2024-04-30T01:57:12.250Z,76.58
2024-04-30T01:59:44.160Z,76.54
2024-04-30T02:02:12.038Z,76.69
2024-04-30T02:04:46.443Z,76.68
2024-04-30T02:07:17.297Z,76.83
2024-04-30T02:09:45.054Z,77.08
2024-04-30T02:12:12.690Z,77.17
2024-04-30T02:14:40.491Z,77.16
2024-04-30T02:17:08.302Z,77.25
2024-04-30T02:19:35.974Z,77.42
2024-04-30T02:22:03.841Z,77.30
2024-04-30T02:24:31.422Z,77.25
2024-04-30T02:26:58.956Z,77.57
2024-04-30T02:29:26.773Z,77.68
2024-04-30T02:32:13.296Z,77.71
2024-04-30T02:34:40.871Z,78.00
2024-04-30T02:37:08.468Z,77.94
2024-04-30T02:39:36.150Z,77.67
2024-04-30T02:42:03.980Z,77.74
2024-04-30T02:44:34.398Z,77.73
2024-04-30T02:47:02.695Z,77.72
2024-04-30T02:49:30.500Z,77.81
2024-04-30T02:51:58.216Z,77.92
2024-04-30T02:54:25.741Z,77.95
2024-04-30T02:56:53.269Z,78.13
2024-04-30T02:59:20.794Z,78.13
2024-04-30T03:01:48.408Z,78.02
2024-04-30T03:04:16.133Z,77.88
2024-04-30T03:06:43.808Z,77.87
2024-04-30T03:09:11.357Z,78.01
2024-04-30T03:11:46.047Z,78.16
2024-04-30T03:14:13.801Z,78.14
2024-04-30T03:16:44.953Z,78.19
2024-04-30T03:19:12.568Z,78.40
2024-04-30T03:21:40.221Z,78.34
2024-04-30T03:24:08.196Z,78.38
2024-04-30T03:26:43.246Z,78.46
2024-04-30T03:29:10.859Z,78.45
2024-04-30T03:31:38.441Z,78.57
2024-04-30T03:34:06.238Z,78.63
2024-04-30T03:36:33.833Z,78.74
2024-04-30T03:39:01.603Z,78.87
2024-04-30T03:41:29.224Z,78.78
2024-04-30T03:43:56.745Z,78.74
2024-04-30T03:46:24.442Z,78.85
2024-04-30T03:48:52.002Z,78.81
2024-04-30T03:51:19.820Z,78.88
2024-04-30T03:53:47.979Z,78.98
2024-04-30T03:56:15.734Z,78.96
2024-04-30T03:58:43.313Z,78.94
2024-04-30T04:01:11.041Z,78.92
2024-04-30T04:03:38.758Z,78.94
2024-04-30T04:06:06.474Z,79.18
2024-04-30T04:08:34.000Z,79.24
2024-04-30T04:11:20.114Z,79.17
2024-04-30T04:14:06.386Z,79.33
2024-04-30T04:16:34.105Z,79.35
2024-04-30T04:19:01.832Z,79.59
2024-04-30T04:21:29.472Z,79.70
2024-04-30T04:23:57.022Z,79.85
2024-04-30T04:26:24.599Z,79.96
2024-04-30T04:28:52.183Z,79.91
2024-04-30T04:31:19.761Z,80.12
2024-04-30T04:33:47.316Z,80.11
2024-04-30T04:36:16.143Z,79.96
2024-04-30T04:38:43.923Z,80.03
2024-04-30T04:41:11.516Z,80.05
2024-04-30T04:43:39.109Z,80.32
2024-04-30T04:46:06.881Z,80.45
2024-04-30T04:48:34.577Z,80.21
2024-04-30T04:51:02.238Z,80.27
2024-04-30T04:53:29.758Z,80.21
2024-04-30T04:55:57.979Z,80.17
2024-04-30T04:58:25.645Z,80.38
2024-04-30T05:00:53.262Z,80.42
2024-04-30T05:03:20.874Z,80.16
2024-04-30T05:05:48.451Z,80.37
2024-04-30T05:08:16.008Z,80.33
2024-04-30T05:10:43.749Z,80.49
2024-04-30T05:13:11.396Z,80.59
2024-04-30T05:15:39.057Z,80.70
2024-04-30T05:18:06.734Z,80.72
2024-04-30T05:20:34.273Z,80.62
2024-04-30T05:23:02.011Z,80.56
2024-04-30T05:25:29.759Z,80.68
2024-04-30T05:27:57.403Z,80.54
2024-04-30T05:30:25.364Z,80.73
2024-04-30T05:32:52.991Z,80.84
2024-04-30T05:35:20.649Z,81.03
2024-04-30T05:37:48.430Z,81.27
2024-04-30T05:40:16.004Z,81.21
2024-04-30T05:42:43.568Z,81.37
2024-04-30T05:45:12.837Z,81.16
2024-04-30T05:47:40.649Z,81.04
2024-04-30T05:50:08.230Z,81.21
2024-04-30T05:52:35.850Z,81.24
2024-04-30T05:55:03.667Z,81.24
2024-04-30T05:57:31.319Z,81.50
2024-04-30T05:59:58.834Z,81.23
2024-04-30T06:02:26.400Z,81.42
2024-04-30T06:04:54.042Z,81.45
2024-04-30T06:07:21.755Z,81.45
2024-04-30T06:09:49.644Z,81.20
2024-04-30T06:12:17.263Z,81.08
2024-04-30T06:14:45.002Z,80.96
2024-04-30T06:17:12.674Z,80.71
2024-04-30T06:19:40.331Z,80.67
2024-04-30T06:22:08.145Z,80.54
2024-04-30T06:24:35.844Z,80.20
2024-04-30T06:27:03.849Z,80.11
2024-04-30T06:29:31.406Z,79.88
2024-04-30T06:31:58.996Z,79.76
2024-04-30T06:34:26.701Z,79.42
2024-04-30T06:36:54.256Z,79.22
2024-04-30T06:39:22.896Z,79.08
2024-04-30T06:41:50.534Z,78.92
2024-04-30T06:44:18.088Z,78.69
2024-04-30T06:46:45.676Z,78.36
2024-04-30T06:49:13.350Z,77.94
2024-04-30T06:51:41.435Z,77.59
2024-04-30T06:54:09.074Z,77.36
2024-04-30T06:56:36.706Z,77.09
2024-04-30T06:59:04.270Z,77.09
2024-04-30T07:01:31.878Z,76.83
2024-04-30T07:03:59.484Z,76.22
2024-04-30T07:06:27.163Z,75.75
2024-04-30T07:08:54.690Z,75.53
2024-04-30T07:11:22.339Z,75.22
2024-04-30T07:13:50.015Z,74.31
2024-04-30T07:16:17.647Z,73.83
2024-04-30T07:18:46.342Z,73.72
2024-04-30T07:21:13.955Z,73.34
2024-04-30T07:23:41.554Z,73.20
2024-04-30T07:26:09.070Z,72.65
2024-04-30T07:28:36.840Z,72.47
2024-04-30T07:31:04.620Z,71.84
2024-04-30T07:33:32.228Z,71.85
2024-04-30T07:35:59.785Z,71.79
2024-04-30T07:38:27.386Z,71.51
2024-04-30T07:40:55.497Z,70.69
2024-04-30T07:43:23.087Z,70.64
2024-04-30T07:45:50.649Z,70.65
2024-04-30T07:48:18.295Z,70.69
2024-04-30T07:50:45.963Z,70.64
2024-04-30T07:53:13.510Z,70.32
2024-04-30T07:55:41.320Z,69.95
2024-04-30T07:58:08.990Z,69.53
2024-04-30T08:00:36.618Z,68.70
2024-04-30T08:03:04.629Z,69.00
2024-04-30T08:05:41.975Z,68.50
2024-04-30T08:08:13.448Z,67.55
2024-04-30T08:10:41.752Z,66.50
2024-04-30T08:13:09.435Z,66.20
2024-04-30T08:15:37.078Z,65.02
2024-04-30T08:18:05.148Z,64.39
2024-04-30T08:20:32.885Z,63.46
2024-04-30T08:23:00.470Z,63.39
2024-04-30T08:25:28.025Z,62.63
2024-04-30T08:27:55.521Z,62.78
2024-04-30T08:30:23.116Z,61.78
2024-04-30T08:32:51.226Z,61.68
2024-04-30T08:35:18.873Z,61.82
2024-04-30T08:37:54.042Z,60.63
2024-04-30T08:40:26.049Z,58.62
2024-04-30T08:42:53.808Z,58.92
2024-04-30T08:45:26.449Z,58.13
2024-04-30T08:47:58.368Z,58.76
2024-04-30T08:50:28.120Z,58.74
2024-04-30T08:52:57.318Z,57.62
2024-04-30T08:55:26.339Z,56.85
2024-04-30T08:57:54.030Z,56.85
2024-04-30T09:00:21.558Z,56.61
2024-04-30T09:02:53.879Z,55.44
2024-04-30T09:05:23.060Z,54.74
2024-04-30T09:07:50.789Z,54.49
2024-04-30T09:10:18.391Z,55.75
2024-04-30T09:12:45.960Z,54.30
2024-04-30T09:15:18.189Z,54.24
2024-04-30T09:17:45.872Z,53.50
2024-04-30T09:20:13.623Z,54.20
2024-04-30T09:22:46.951Z,53.67
2024-04-30T09:25:16.175Z,53.30
2024-04-30T09:27:44.956Z,54.09
2024-04-30T09:30:21.742Z,53.53
2024-04-30T09:32:49.978Z,52.99
2024-04-30T09:35:28.395Z,52.64
2024-04-30T09:38:01.406Z,52.37
2024-04-30T09:40:32.355Z,51.98
2024-04-30T09:43:01.306Z,52.13
2024-04-30T09:45:31.951Z,50.89
2024-04-30T09:48:08.833Z,51.30
2024-04-30T09:50:38.457Z,51.64
2024-04-30T09:53:07.789Z,51.24
2024-04-30T09:55:38.053Z,50.24
2024-04-30T09:58:07.135Z,50.89
2024-04-30T10:00:34.947Z,49.60
2024-04-30T10:03:09.976Z,50.46
2024-04-30T10:05:45.067Z,50.74
2024-04-30T10:08:15.543Z,50.95
2024-04-30T10:10:43.300Z,49.61
2024-04-30T10:13:23.556Z,49.10
2024-04-30T10:15:51.290Z,49.43
2024-04-30T10:18:23.629Z,48.38
2024-04-30T10:20:51.523Z,48.82
2024-04-30T10:23:32.823Z,49.13
2024-04-30T10:26:07.422Z,49.27
2024-04-30T10:28:37.489Z,48.66
2024-04-30T10:31:13.098Z,49.03
2024-04-30T10:33:41.068Z,49.41
2024-04-30T10:36:11.000Z,49.40
2024-04-30T10:38:42.324Z,49.44
2024-04-30T10:41:10.813Z,48.34
2024-04-30T10:43:38.445Z,48.95
2024-04-30T10:46:32.277Z,49.06
2024-04-30T10:48:59.856Z,48.34
2024-04-30T10:51:27.514Z,47.94
2024-04-30T10:53:58.163Z,47.34
2024-04-30T10:56:25.949Z,48.34
2024-04-30T10:58:58.791Z,47.71
2024-04-30T11:01:30.179Z,48.27
2024-04-30T11:04:18.137Z,47.94
2024-04-30T11:06:48.092Z,47.81
2024-04-30T11:09:16.338Z,48.41
2024-04-30T11:11:49.825Z,48.78
2024-04-30T11:14:19.143Z,49.00
2024-04-30T11:16:47.924Z,48.64
2024-04-30T11:19:16.019Z,48.15
2024-04-30T11:21:44.470Z,46.48
2024-04-30T11:24:12.028Z,46.87
2024-04-30T11:26:39.701Z,47.26
2024-04-30T11:31:37.922Z,45.97
2024-04-30T11:34:06.030Z,46.01
2024-04-30T11:36:33.799Z,46.32
2024-04-30T11:39:01.369Z,46.31
2024-04-30T11:41:28.974Z,46.31
2024-04-30T11:43:58.366Z,46.24
2024-04-30T11:46:25.999Z,45.63
2024-04-30T11:48:53.805Z,46.21
2024-04-30T11:51:21.617Z,46.68
2024-04-30T11:53:49.394Z,46.50
2024-04-30T11:56:16.994Z,46.78
2024-04-30T11:58:44.713Z,46.30
2024-04-30T12:01:12.538Z,45.55
2024-04-30T12:03:40.079Z,44.84
2024-04-30T12:06:07.637Z,44.78
2024-04-30T12:08:38.092Z,45.60
2024-04-30T12:11:05.723Z,44.65
2024-04-30T12:13:35.848Z,44.18
2024-04-30T12:16:04.154Z,44.44
2024-04-30T12:18:32.084Z,44.98
2024-04-30T12:20:59.727Z,44.24
2024-04-30T12:23:27.374Z,44.34
2024-04-30T12:25:55.800Z,44.82
2024-04-30T12:28:23.367Z,44.74
2024-04-30T12:30:51.129Z,44.54
2024-04-30T12:33:20.441Z,44.86
2024-04-30T12:35:49.101Z,43.82
2024-04-30T12:38:16.969Z,43.30
2024-04-30T12:40:45.630Z,43.32
2024-04-30T12:43:13.626Z,42.68
2024-04-30T12:45:41.835Z,42.38
2024-04-30T12:48:09.630Z,42.69
2024-04-30T12:50:37.256Z,42.10
2024-04-30T12:53:04.852Z,42.44
2024-04-30T12:55:35.042Z,42.01
2024-04-30T12:58:03.200Z,42.77
2024-04-30T13:00:30.747Z,43.29
2024-04-30T13:02:58.457Z,42.95
2024-04-30T13:05:27.014Z,42.72
2024-04-30T13:07:54.687Z,42.93
2024-04-30T13:10:22.401Z,42.93
2024-04-30T13:12:49.955Z,43.09
2024-04-30T13:15:17.625Z,43.32
2024-04-30T13:17:45.267Z,44.30
2024-04-30T13:20:13.050Z,43.30
2024-04-30T13:22:40.654Z,43.76
2024-04-30T13:25:08.338Z,43.64
2024-04-30T13:27:35.885Z,42.57
2024-04-30T13:30:03.888Z,42.31
2024-04-30T13:32:31.457Z,42.40
2024-04-30T13:34:59.021Z,42.12
2024-04-30T13:37:26.586Z,42.27
2024-04-30T13:39:54.201Z,41.61
2024-04-30T13:42:21.886Z,41.62
2024-04-30T13:44:50.033Z,41.52
2024-04-30T13:47:17.932Z,42.24
2024-04-30T13:49:47.380Z,42.77
2024-04-30T13:52:15.054Z,42.79
2024-04-30T13:54:42.656Z,41.97
2024-04-30T13:57:10.209Z,42.31
2024-04-30T13:59:37.819Z,42.44
2024-04-30T14:02:08.411Z,41.28
2024-04-30T14:04:36.379Z,41.12
2024-04-30T14:07:04.250Z,40.99
2024-04-30T14:09:33.818Z,42.15
2024-04-30T14:12:02.949Z,42.26
2024-04-30T14:14:30.815Z,42.17
2024-04-30T14:16:58.380Z,42.51
2024-04-30T14:19:26.144Z,42.68
2024-04-30T14:21:53.749Z,42.25
2024-04-30T14:24:21.425Z,42.03
2024-04-30T14:26:50.506Z,41.92
2024-04-30T14:29:19.506Z,41.64
2024-04-30T14:31:47.104Z,41.99
2024-04-30T14:34:14.820Z,42.42
2024-04-30T14:36:44.966Z,43.14
2024-04-30T14:39:12.951Z,42.84
2024-04-30T14:41:42.556Z,43.15
2024-04-30T14:44:13.939Z,42.55
2024-04-30T14:46:41.946Z,43.48
2024-04-30T14:49:09.813Z,42.85
2024-04-30T14:51:40.437Z,42.70
2024-04-30T14:54:08.615Z,43.01
2024-04-30T14:56:37.521Z,43.16
2024-04-30T14:59:05.210Z,42.60
2024-04-30T15:01:33.001Z,42.20
2024-04-30T15:04:00.795Z,43.07
2024-04-30T15:06:29.230Z,42.86
2024-04-30T15:08:56.948Z,43.21
2024-04-30T15:11:25.339Z,43.92
2024-04-30T15:13:53.592Z,43.98
2024-04-30T15:16:21.418Z,43.66
2024-04-30T15:18:49.448Z,43.61
2024-04-30T15:21:17.038Z,43.90
2024-04-30T15:23:45.487Z,43.80
2024-04-30T15:26:15.166Z,43.91
2024-04-30T15:28:43.216Z,43.65
2024-04-30T15:31:21.512Z,44.12
2024-04-30T15:33:49.832Z,44.66
2024-04-30T15:36:17.417Z,44.42
2024-04-30T15:38:46.193Z,44.68
2024-04-30T15:41:23.346Z,45.09
2024-04-30T15:43:51.433Z,45.06
2024-04-30T15:46:19.308Z,45.32
2024-04-30T15:48:50.232Z,45.72
2024-04-30T15:51:19.317Z,45.78
2024-04-30T15:53:46.951Z,46.21
2024-04-30T15:56:17.579Z,46.62
2024-04-30T15:58:47.651Z,47.01
2024-04-30T16:01:15.775Z,47.30
2024-04-30T16:03:44.313Z,47.52
2024-04-30T16:06:12.212Z,47.22
2024-04-30T16:08:39.775Z,47.12
2024-04-30T16:11:10.434Z,47.49
2024-04-30T16:13:40.132Z,47.80
2024-04-30T16:16:15.435Z,48.03
2024-04-30T16:18:47.694Z,48.07
2024-04-30T16:21:16.656Z,48.01
2024-04-30T16:23:44.500Z,47.93
2024-04-30T16:26:12.264Z,47.40
2024-04-30T16:28:43.905Z,47.39
2024-04-30T16:31:14.707Z,47.68
2024-04-30T16:33:42.903Z,47.51
2024-04-30T16:36:20.647Z,46.79
2024-04-30T16:38:49.812Z,46.93
2024-04-30T16:41:17.921Z,47.09
2024-04-30T16:43:45.505Z,46.81
2024-04-30T16:46:13.144Z,47.26
2024-04-30T16:48:41.167Z,47.46
2024-04-30T16:51:14.818Z,47.80
2024-04-30T16:53:43.148Z,47.69
2024-04-30T16:56:11.024Z,48.05
2024-04-30T16:58:38.783Z,47.86
2024-04-30T17:01:06.896Z,48.10
2024-04-30T17:03:34.964Z,46.93
2024-04-30T17:06:11.243Z,46.73
2024-04-30T17:08:40.012Z,46.51
2024-04-30T17:11:11.871Z,46.28
2024-04-30T17:13:44.216Z,46.18
2024-04-30T17:16:23.511Z,46.05
2024-04-30T17:18:51.586Z,45.87
2024-04-30T17:21:22.351Z,46.00
2024-04-30T17:23:50.250Z,46.49
2024-04-30T17:26:25.364Z,46.87
2024-04-30T17:28:54.970Z,48.06
2024-04-30T17:31:23.952Z,48.05
2024-04-30T17:33:55.786Z,48.39
2024-04-30T17:36:23.671Z,48.59
2024-04-30T17:38:51.391Z,48.73
2024-04-30T17:41:23.787Z,48.84
2024-04-30T17:43:51.716Z,49.28
2024-04-30T17:46:19.829Z,49.71
2024-04-30T17:48:48.462Z,49.78
2024-04-30T17:51:16.653Z,50.23
2024-04-30T17:53:44.223Z,50.62
2024-04-30T17:56:11.880Z,51.04
2024-04-30T17:58:40.166Z,51.36
2024-04-30T18:01:07.846Z,51.59
2024-04-30T18:03:35.788Z,51.62
2024-04-30T18:06:03.571Z,52.28
2024-04-30T18:08:31.148Z,52.44
2024-04-30T18:10:58.800Z,52.80
2024-04-30T18:13:26.338Z,53.29
2024-04-30T18:15:54.208Z,53.80
2024-04-30T18:18:22.698Z,54.18
2024-04-30T18:20:50.329Z,54.63
2024-04-30T18:23:17.954Z,54.88
2024-04-30T18:25:45.482Z,55.19
2024-04-30T18:28:13.167Z,55.58
2024-04-30T18:30:40.703Z,55.66
2024-04-30T18:33:08.326Z,55.73
2024-04-30T18:35:35.939Z,55.94
2024-04-30T18:38:03.581Z,55.77
2024-04-30T18:40:31.117Z,55.89
2024-04-30T18:42:58.797Z,56.17
2024-04-30T18:45:26.374Z,56.35
2024-04-30T18:47:54.031Z,56.61
2024-04-30T18:50:21.641Z,57.06
2024-04-30T18:52:49.529Z,57.22
2024-04-30T18:55:17.119Z,57.62
2024-04-30T18:57:45.229Z,57.88
2024-04-30T19:00:13.182Z,58.55
2024-04-30T19:02:41.336Z,58.95
2024-04-30T19:05:08.940Z,59.35
2024-04-30T19:07:36.573Z,60.12
2024-04-30T19:10:04.591Z,60.68
2024-04-30T19:12:32.297Z,61.18
2024-04-30T19:14:59.854Z,61.55
2024-04-30T19:17:27.437Z,62.07
2024-04-30T19:19:55.007Z,62.56
2024-04-30T19:22:22.568Z,63.08
2024-04-30T19:24:50.253Z,63.19
2024-04-30T19:27:19.941Z,63.28
2024-04-30T19:29:47.551Z,63.51
2024-04-30T19:32:16.018Z,63.87
2024-04-30T19:34:43.808Z,64.18
2024-04-30T19:37:11.389Z,64.47
2024-04-30T19:39:38.984Z,64.86
2024-04-30T19:42:06.812Z,65.09
2024-04-30T19:44:39.148Z,65.44
2024-04-30T19:47:07.517Z,65.82
2024-04-30T19:49:35.219Z,66.06
2024-04-30T19:52:03.372Z,66.44
2024-04-30T19:54:31.061Z,66.71
2024-04-30T19:56:59.181Z,67.14
2024-04-30T19:59:26.800Z,67.21
2024-04-30T20:01:54.400Z,67.45
2024-04-30T20:04:21.971Z,67.76
2024-04-30T20:06:49.730Z,68.13
2024-04-30T20:09:19.517Z,68.56
2024-04-30T20:11:47.319Z,68.92
2024-04-30T20:14:15.156Z,69.10
2024-04-30T20:16:46.120Z,69.24
2024-04-30T20:19:13.902Z,69.55
2024-04-30T20:21:41.556Z,69.79
2024-04-30T20:24:09.627Z,70.02
2024-04-30T20:26:37.524Z,70.19
2024-04-30T20:29:07.882Z,70.48
2024-04-30T20:31:36.402Z,70.75
2024-04-30T20:34:05.609Z,71.11
2024-04-30T20:36:33.178Z,71.10
2024-04-30T20:39:01.130Z,71.21
2024-04-30T20:41:28.755Z,71.55
2024-04-30T20:43:56.542Z,71.95
2024-04-30T20:46:24.105Z,72.03
2024-04-30T20:48:51.786Z,72.21
2024-04-30T20:51:19.701Z,72.24
2024-04-30T20:53:47.282Z,72.42
2024-04-30T20:56:14.877Z,72.57
2024-04-30T20:58:42.438Z,72.72
2024-04-30T21:01:17.111Z,72.79
2024-04-30T21:03:44.949Z,72.90
2024-04-30T21:06:12.629Z,73.10
2024-04-30T21:08:40.285Z,73.45
2024-04-30T21:11:14.059Z,73.72
2024-04-30T21:13:42.301Z,73.96
2024-04-30T21:16:09.888Z,73.76
2024-04-30T21:18:37.823Z,74.04
2024-04-30T21:21:06.073Z,74.27
2024-04-30T21:23:33.610Z,74.12
2024-04-30T21:26:01.204Z,74.12
2024-04-30T21:28:30.073Z,74.37
2024-04-30T21:30:57.698Z,74.65
2024-04-30T21:33:25.398Z,74.64
2024-04-30T21:35:53.554Z,74.68
2024-04-30T21:38:21.164Z,74.70
2024-04-30T21:40:48.738Z,74.93
2024-04-30T21:43:16.315Z,74.89
2024-04-30T21:45:43.921Z,74.96
2024-04-30T21:48:11.720Z,75.26
2024-04-30T21:50:39.311Z,75.35
2024-04-30T21:53:06.888Z,75.43
2024-04-30T21:55:34.439Z,75.54
2024-04-30T21:58:02.053Z,75.56
2024-04-30T22:00:29.656Z,75.36
2024-04-30T22:03:02.599Z,75.64
2024-04-30T22:05:31.270Z,75.74
2024-04-30T22:07:58.931Z,75.70
2024-04-30T22:10:26.481Z,75.95
2024-04-30T22:12:54.155Z,76.02
2024-04-30T22:15:21.874Z,75.88
2024-04-30T22:17:50.159Z,75.99
2024-04-30T22:20:18.036Z,76.31
2024-04-30T22:22:45.573Z,76.57
2024-04-30T22:25:13.274Z,76.70
2024-04-30T22:27:40.859Z,76.83
2024-04-30T22:30:17.317Z,76.94
2024-04-30T22:32:49.169Z,76.68
2024-04-30T22:35:16.937Z,76.58
2024-04-30T22:37:44.470Z,76.79
2024-04-30T22:40:12.108Z,76.77
2024-04-30T22:42:39.755Z,76.75
2024-04-30T22:45:07.559Z,76.70
2024-04-30T22:47:35.358Z,76.56
2024-04-30T22:50:03.297Z,76.66
2024-04-30T22:52:30.916Z,76.75
2024-04-30T22:54:58.844Z,76.77
2024-04-30T22:57:26.570Z,77.23
2024-04-30T22:59:54.168Z,77.23
2024-04-30T23:02:22.430Z,77.30
2024-04-30T23:04:50.384Z,77.32
2024-04-30T23:07:17.984Z,77.25
2024-04-30T23:09:45.588Z,77.25
2024-04-30T23:12:13.214Z,77.55
2024-04-30T23:14:40.779Z,77.58
2024-04-30T23:17:08.359Z,77.57
2024-04-30T23:19:35.934Z,77.60
2024-04-30T23:22:03.777Z,78.03
2024-04-30T23:24:31.538Z,77.99
2024-04-30T23:26:59.170Z,78.12
2024-04-30T23:29:28.102Z,78.09
2024-04-30T23:31:56.195Z,77.98
2024-04-30T23:34:23.939Z,77.82
2024-04-30T23:36:53.728Z,77.67
2024-04-30T23:39:21.554Z,77.80
2024-04-30T23:41:49.347Z,78.07
2024-04-30T23:44:16.897Z,78.31
2024-04-30T23:46:44.470Z,78.30
2024-04-30T23:49:12.124Z,78.37
2024-04-30T23:51:39.733Z,78.47
2024-04-30T23:54:07.321Z,78.73
2024-04-30T23:56:34.863Z,78.81
2024-04-30T23:59:02.415Z,78.76
